sensor_id;sensor_type;location;lat;lon;timestamp;P1;durP1;ratioP1;P2;durP2;ratioP2
82242;SDS011;71844;51.528;4.442;2024-02-04T00:00:21;11.52;;;5.43;;
82242;SDS011;71844;51.528;4.442;2024-02-04T00:02:48;10.88;;;5.55;;
82242;SDS011;71844;51.528;4.442;2024-02-04T00:05:15;12.68;;;5.05;;
82242;SDS011;71844;51.528;4.442;2024-02-04T00:07:42;13.52;;;4.68;;
82242;SDS011;71844;51.528;4.442;2024-02-04T00:10:09;15.63;;;5.93;;
82242;SDS011;71844;51.528;4.442;2024-02-04T00:12:36;17.90;;;6.28;;
82242;SDS011;71844;51.528;4.442;2024-02-04T00:15:03;22.67;;;6.43;;
82242;SDS011;71844;51.528;4.442;2024-02-04T00:17:33;16.38;;;5.88;;
82242;SDS011;71844;51.528;4.442;2024-02-04T00:20:01;24.17;;;6.85;;
82242;SDS011;71844;51.528;4.442;2024-02-04T00:22:32;15.23;;;5.88;;
82242;SDS011;71844;51.528;4.442;2024-02-04T00:25:00;21.95;;;6.10;;
82242;SDS011;71844;51.528;4.442;2024-02-04T00:27:36;16.23;;;5.50;;
82242;SDS011;71844;51.528;4.442;2024-02-04T00:30:03;18.08;;;5.60;;
82242;SDS011;71844;51.528;4.442;2024-02-04T00:32:31;19.65;;;4.55;;
82242;SDS011;71844;51.528;4.442;2024-02-04T00:35:00;15.48;;;4.72;;
82242;SDS011;71844;51.528;4.442;2024-02-04T00:37:29;18.17;;;4.53;;
82242;SDS011;71844;51.528;4.442;2024-02-04T00:39:55;16.95;;;4.15;;
82242;SDS011;71844;51.528;4.442;2024-02-04T00:42:22;19.70;;;5.45;;
82242;SDS011;71844;51.528;4.442;2024-02-04T00:44:49;20.67;;;4.47;;
82242;SDS011;71844;51.528;4.442;2024-02-04T00:47:16;13.63;;;4.25;;
82242;SDS011;71844;51.528;4.442;2024-02-04T00:49:43;20.02;;;4.45;;
82242;SDS011;71844;51.528;4.442;2024-02-04T00:52:10;18.52;;;4.93;;
82242;SDS011;71844;51.528;4.442;2024-02-04T00:54:37;22.67;;;5.28;;
82242;SDS011;71844;51.528;4.442;2024-02-04T00:57:04;13.38;;;4.07;;
82242;SDS011;71844;51.528;4.442;2024-02-04T00:59:31;16.13;;;4.78;;
82242;SDS011;71844;51.528;4.442;2024-02-04T01:01:58;12.13;;;4.20;;
82242;SDS011;71844;51.528;4.442;2024-02-04T01:04:25;22.55;;;4.72;;
82242;SDS011;71844;51.528;4.442;2024-02-04T01:06:52;22.85;;;4.80;;
82242;SDS011;71844;51.528;4.442;2024-02-04T01:09:27;18.75;;;4.90;;
82242;SDS011;71844;51.528;4.442;2024-02-04T01:11:55;20.05;;;4.57;;
82242;SDS011;71844;51.528;4.442;2024-02-04T01:14:22;9.40;;;3.97;;
82242;SDS011;71844;51.528;4.442;2024-02-04T01:16:49;15.07;;;4.38;;
82242;SDS011;71844;51.528;4.442;2024-02-04T01:19:16;14.75;;;4.15;;
82242;SDS011;71844;51.528;4.442;2024-02-04T01:21:43;22.50;;;5.03;;
82242;SDS011;71844;51.528;4.442;2024-02-04T01:24:11;14.95;;;4.95;;
82242;SDS011;71844;51.528;4.442;2024-02-04T01:26:38;15.50;;;4.13;;
82242;SDS011;71844;51.528;4.442;2024-02-04T01:29:04;18.85;;;5.32;;
82242;SDS011;71844;51.528;4.442;2024-02-04T01:31:31;19.23;;;5.38;;
82242;SDS011;71844;51.528;4.442;2024-02-04T01:33:59;22.90;;;5.80;;
82242;SDS011;71844;51.528;4.442;2024-02-04T01:36:26;15.10;;;4.65;;
82242;SDS011;71844;51.528;4.442;2024-02-04T01:38:53;19.35;;;4.20;;
82242;SDS011;71844;51.528;4.442;2024-02-04T01:41:19;13.77;;;3.70;;
82242;SDS011;71844;51.528;4.442;2024-02-04T01:43:46;20.73;;;4.70;;
82242;SDS011;71844;51.528;4.442;2024-02-04T01:46:13;13.80;;;3.85;;
82242;SDS011;71844;51.528;4.442;2024-02-04T01:48:40;16.92;;;4.63;;
82242;SDS011;71844;51.528;4.442;2024-02-04T01:51:07;17.27;;;4.13;;
82242;SDS011;71844;51.528;4.442;2024-02-04T01:53:34;16.10;;;4.35;;
82242;SDS011;71844;51.528;4.442;2024-02-04T01:56:05;22.23;;;5.97;;
82242;SDS011;71844;51.528;4.442;2024-02-04T01:58:33;12.50;;;4.15;;
82242;SDS011;71844;51.528;4.442;2024-02-04T02:03:45;14.70;;;3.17;;
82242;SDS011;71844;51.528;4.442;2024-02-04T02:06:12;16.60;;;4.30;;
82242;SDS011;71844;51.528;4.442;2024-02-04T02:08:41;14.40;;;4.13;;
82242;SDS011;71844;51.528;4.442;2024-02-04T02:11:11;20.83;;;4.57;;
82242;SDS011;71844;51.528;4.442;2024-02-04T02:13:44;17.90;;;4.63;;
82242;SDS011;71844;51.528;4.442;2024-02-04T02:16:18;19.25;;;3.90;;
82242;SDS011;71844;51.528;4.442;2024-02-04T02:19:00;20.65;;;3.97;;
82242;SDS011;71844;51.528;4.442;2024-02-04T02:21:52;17.80;;;3.88;;
82242;SDS011;71844;51.528;4.442;2024-02-04T02:24:34;15.77;;;4.32;;
82242;SDS011;71844;51.528;4.442;2024-02-04T02:27:06;13.98;;;3.58;;
82242;SDS011;71844;51.528;4.442;2024-02-04T02:29:33;20.05;;;4.60;;
82242;SDS011;71844;51.528;4.442;2024-02-04T02:32:00;17.08;;;5.20;;
82242;SDS011;71844;51.528;4.442;2024-02-04T02:34:30;18.52;;;5.03;;
82242;SDS011;71844;51.528;4.442;2024-02-04T02:39:42;15.00;;;5.20;;
82242;SDS011;71844;51.528;4.442;2024-02-04T02:42:16;16.70;;;4.18;;
82242;SDS011;71844;51.528;4.442;2024-02-04T02:44:44;20.55;;;4.90;;
82242;SDS011;71844;51.528;4.442;2024-02-04T02:47:12;17.30;;;4.93;;
82242;SDS011;71844;51.528;4.442;2024-02-04T02:49:40;13.88;;;3.83;;
82242;SDS011;71844;51.528;4.442;2024-02-04T02:52:07;15.05;;;4.68;;
82242;SDS011;71844;51.528;4.442;2024-02-04T02:54:34;16.17;;;4.82;;
82242;SDS011;71844;51.528;4.442;2024-02-04T02:57:00;19.77;;;4.95;;
82242;SDS011;71844;51.528;4.442;2024-02-04T02:59:28;21.27;;;5.07;;
82242;SDS011;71844;51.528;4.442;2024-02-04T03:01:55;20.48;;;4.28;;
82242;SDS011;71844;51.528;4.442;2024-02-04T03:04:22;16.90;;;4.78;;
82242;SDS011;71844;51.528;4.442;2024-02-04T03:06:48;22.92;;;4.97;;
82242;SDS011;71844;51.528;4.442;2024-02-04T03:09:15;16.13;;;4.38;;
82242;SDS011;71844;51.528;4.442;2024-02-04T03:11:43;15.73;;;4.47;;
82242;SDS011;71844;51.528;4.442;2024-02-04T03:14:09;16.83;;;4.43;;
82242;SDS011;71844;51.528;4.442;2024-02-04T03:16:36;15.10;;;4.63;;
82242;SDS011;71844;51.528;4.442;2024-02-04T03:19:04;22.52;;;5.72;;
82242;SDS011;71844;51.528;4.442;2024-02-04T03:21:32;14.35;;;4.97;;
82242;SDS011;71844;51.528;4.442;2024-02-04T03:23:59;15.75;;;4.80;;
82242;SDS011;71844;51.528;4.442;2024-02-04T03:26:26;19.02;;;5.15;;
82242;SDS011;71844;51.528;4.442;2024-02-04T03:28:53;17.20;;;5.43;;
82242;SDS011;71844;51.528;4.442;2024-02-04T03:31:21;17.67;;;5.55;;
82242;SDS011;71844;51.528;4.442;2024-02-04T03:33:49;16.98;;;5.05;;
82242;SDS011;71844;51.528;4.442;2024-02-04T03:36:18;12.38;;;4.20;;
82242;SDS011;71844;51.528;4.442;2024-02-04T03:38:47;16.30;;;5.10;;
82242;SDS011;71844;51.528;4.442;2024-02-04T03:41:14;13.98;;;4.40;;
82242;SDS011;71844;51.528;4.442;2024-02-04T03:43:40;12.43;;;4.07;;
82242;SDS011;71844;51.528;4.442;2024-02-04T03:46:07;16.60;;;3.42;;
82242;SDS011;71844;51.528;4.442;2024-02-04T03:48:34;18.50;;;4.10;;
82242;SDS011;71844;51.528;4.442;2024-02-04T03:51:02;16.02;;;4.20;;
82242;SDS011;71844;51.528;4.442;2024-02-04T03:53:29;14.48;;;4.03;;
82242;SDS011;71844;51.528;4.442;2024-02-04T03:55:56;14.70;;;3.72;;
82242;SDS011;71844;51.528;4.442;2024-02-04T03:58:23;10.20;;;3.92;;
82242;SDS011;71844;51.528;4.442;2024-02-04T04:00:55;16.00;;;3.47;;
82242;SDS011;71844;51.528;4.442;2024-02-04T04:03:23;13.48;;;3.38;;
82242;SDS011;71844;51.528;4.442;2024-02-04T04:05:52;12.90;;;3.72;;
82242;SDS011;71844;51.528;4.442;2024-02-04T04:08:20;16.48;;;4.30;;
82242;SDS011;71844;51.528;4.442;2024-02-04T04:10:46;15.65;;;3.85;;
82242;SDS011;71844;51.528;4.442;2024-02-04T04:13:13;16.73;;;4.63;;
82242;SDS011;71844;51.528;4.442;2024-02-04T04:15:40;19.65;;;4.78;;
82242;SDS011;71844;51.528;4.442;2024-02-04T04:18:08;17.00;;;5.13;;
82242;SDS011;71844;51.528;4.442;2024-02-04T04:20:38;15.70;;;4.63;;
82242;SDS011;71844;51.528;4.442;2024-02-04T04:23:05;17.27;;;5.28;;
82242;SDS011;71844;51.528;4.442;2024-02-04T04:25:32;14.70;;;4.68;;
82242;SDS011;71844;51.528;4.442;2024-02-04T04:27:59;17.50;;;6.15;;
82242;SDS011;71844;51.528;4.442;2024-02-04T04:30:27;16.55;;;4.70;;
82242;SDS011;71844;51.528;4.442;2024-02-04T04:32:56;18.33;;;5.13;;
82242;SDS011;71844;51.528;4.442;2024-02-04T04:35:25;13.25;;;4.35;;
82242;SDS011;71844;51.528;4.442;2024-02-04T04:37:53;15.40;;;5.65;;
82242;SDS011;71844;51.528;4.442;2024-02-04T04:40:20;16.85;;;4.47;;
82242;SDS011;71844;51.528;4.442;2024-02-04T04:42:47;14.05;;;4.30;;
82242;SDS011;71844;51.528;4.442;2024-02-04T04:45:14;12.93;;;4.85;;
82242;SDS011;71844;51.528;4.442;2024-02-04T04:47:41;14.18;;;4.45;;
82242;SDS011;71844;51.528;4.442;2024-02-04T04:50:08;12.20;;;4.03;;
82242;SDS011;71844;51.528;4.442;2024-02-04T04:52:35;8.85;;;3.55;;
82242;SDS011;71844;51.528;4.442;2024-02-04T04:55:02;16.13;;;4.00;;
82242;SDS011;71844;51.528;4.442;2024-02-04T04:57:29;9.73;;;3.08;;
82242;SDS011;71844;51.528;4.442;2024-02-04T04:59:56;13.30;;;3.60;;
82242;SDS011;71844;51.528;4.442;2024-02-04T05:02:26;10.60;;;3.42;;
82242;SDS011;71844;51.528;4.442;2024-02-04T05:04:53;17.13;;;3.92;;
82242;SDS011;71844;51.528;4.442;2024-02-04T05:07:20;13.02;;;3.67;;
82242;SDS011;71844;51.528;4.442;2024-02-04T05:09:48;15.52;;;5.03;;
82242;SDS011;71844;51.528;4.442;2024-02-04T05:12:15;9.05;;;3.15;;
82242;SDS011;71844;51.528;4.442;2024-02-04T05:14:42;12.02;;;3.38;;
82242;SDS011;71844;51.528;4.442;2024-02-04T05:17:08;14.68;;;3.70;;
82242;SDS011;71844;51.528;4.442;2024-02-04T05:19:35;13.43;;;3.25;;
82242;SDS011;71844;51.528;4.442;2024-02-04T05:22:03;15.00;;;3.30;;
82242;SDS011;71844;51.528;4.442;2024-02-04T05:24:30;12.52;;;2.83;;
82242;SDS011;71844;51.528;4.442;2024-02-04T05:26:57;8.25;;;3.13;;
82242;SDS011;71844;51.528;4.442;2024-02-04T05:29:23;12.27;;;2.95;;
82242;SDS011;71844;51.528;4.442;2024-02-04T05:31:50;15.43;;;3.78;;
82242;SDS011;71844;51.528;4.442;2024-02-04T05:34:17;13.23;;;3.45;;
82242;SDS011;71844;51.528;4.442;2024-02-04T05:36:44;9.35;;;3.22;;
82242;SDS011;71844;51.528;4.442;2024-02-04T05:39:11;5.97;;;2.53;;
82242;SDS011;71844;51.528;4.442;2024-02-04T05:41:40;8.65;;;2.50;;
82242;SDS011;71844;51.528;4.442;2024-02-04T05:44:10;9.05;;;3.25;;
82242;SDS011;71844;51.528;4.442;2024-02-04T05:46:38;12.70;;;3.50;;
82242;SDS011;71844;51.528;4.442;2024-02-04T05:49:06;10.00;;;3.45;;
82242;SDS011;71844;51.528;4.442;2024-02-04T05:51:37;11.93;;;2.63;;
82242;SDS011;71844;51.528;4.442;2024-02-04T05:54:08;8.45;;;2.58;;
82242;SDS011;71844;51.528;4.442;2024-02-04T05:56:35;9.88;;;2.90;;
82242;SDS011;71844;51.528;4.442;2024-02-04T05:59:02;10.77;;;3.10;;
82242;SDS011;71844;51.528;4.442;2024-02-04T06:31:26;9.02;;;2.38;;
82242;SDS011;71844;51.528;4.442;2024-02-04T06:33:53;8.63;;;2.97;;
82242;SDS011;71844;51.528;4.442;2024-02-04T06:36:20;9.32;;;3.05;;
82242;SDS011;71844;51.528;4.442;2024-02-04T06:38:47;12.05;;;3.60;;
82242;SDS011;71844;51.528;4.442;2024-02-04T06:41:14;13.13;;;3.85;;
82242;SDS011;71844;51.528;4.442;2024-02-04T06:43:40;13.30;;;3.20;;
82242;SDS011;71844;51.528;4.442;2024-02-04T06:46:07;10.23;;;2.47;;
82242;SDS011;71844;51.528;4.442;2024-02-04T06:48:34;7.72;;;2.58;;
82242;SDS011;71844;51.528;4.442;2024-02-04T06:51:01;8.68;;;2.75;;
82242;SDS011;71844;51.528;4.442;2024-02-04T06:53:28;10.07;;;3.25;;
82242;SDS011;71844;51.528;4.442;2024-02-04T06:55:55;10.63;;;3.38;;
82242;SDS011;71844;51.528;4.442;2024-02-04T06:58:22;12.63;;;3.08;;
82242;SDS011;71844;51.528;4.442;2024-02-04T07:00:52;7.63;;;2.88;;
82242;SDS011;71844;51.528;4.442;2024-02-04T07:03:22;9.75;;;2.85;;
82242;SDS011;71844;51.528;4.442;2024-02-04T07:05:49;10.13;;;2.33;;
82242;SDS011;71844;51.528;4.442;2024-02-04T07:08:16;7.97;;;2.60;;
82242;SDS011;71844;51.528;4.442;2024-02-04T07:10:43;9.07;;;3.03;;
82242;SDS011;71844;51.528;4.442;2024-02-04T07:13:10;7.63;;;2.33;;
82242;SDS011;71844;51.528;4.442;2024-02-04T07:15:38;6.20;;;2.25;;
82242;SDS011;71844;51.528;4.442;2024-02-04T07:18:05;8.93;;;2.50;;
82242;SDS011;71844;51.528;4.442;2024-02-04T07:20:32;7.30;;;2.35;;
82242;SDS011;71844;51.528;4.442;2024-02-04T07:22:59;5.50;;;2.13;;
82242;SDS011;71844;51.528;4.442;2024-02-04T07:25:26;9.27;;;2.30;;
82242;SDS011;71844;51.528;4.442;2024-02-04T07:27:53;13.30;;;3.13;;
82242;SDS011;71844;51.528;4.442;2024-02-04T07:30:21;7.20;;;2.03;;
82242;SDS011;71844;51.528;4.442;2024-02-04T07:32:48;3.40;;;1.55;;
82242;SDS011;71844;51.528;4.442;2024-02-04T07:35:15;9.55;;;2.55;;
82242;SDS011;71844;51.528;4.442;2024-02-04T07:37:42;6.22;;;2.38;;
82242;SDS011;71844;51.528;4.442;2024-02-04T07:40:09;6.03;;;2.33;;
82242;SDS011;71844;51.528;4.442;2024-02-04T07:42:36;8.13;;;2.17;;
82242;SDS011;71844;51.528;4.442;2024-02-04T07:45:03;7.78;;;2.15;;
82242;SDS011;71844;51.528;4.442;2024-02-04T07:47:35;6.88;;;2.70;;
82242;SDS011;71844;51.528;4.442;2024-02-04T07:50:02;12.02;;;2.90;;
82242;SDS011;71844;51.528;4.442;2024-02-04T07:52:30;8.30;;;2.60;;
82242;SDS011;71844;51.528;4.442;2024-02-04T07:54:57;6.43;;;2.50;;
82242;SDS011;71844;51.528;4.442;2024-02-04T07:57:24;7.65;;;2.35;;
82242;SDS011;71844;51.528;4.442;2024-02-04T07:59:51;9.52;;;2.75;;
82242;SDS011;71844;51.528;4.442;2024-02-04T08:02:21;7.57;;;2.60;;
82242;SDS011;71844;51.528;4.442;2024-02-04T08:04:48;7.78;;;2.53;;
82242;SDS011;71844;51.528;4.442;2024-02-04T08:07:15;5.88;;;2.20;;
82242;SDS011;71844;51.528;4.442;2024-02-04T08:09:44;9.25;;;2.05;;
82242;SDS011;71844;51.528;4.442;2024-02-04T08:12:12;9.40;;;2.70;;
82242;SDS011;71844;51.528;4.442;2024-02-04T08:14:39;9.80;;;2.33;;
82242;SDS011;71844;51.528;4.442;2024-02-04T08:17:05;9.88;;;2.60;;
82242;SDS011;71844;51.528;4.442;2024-02-04T08:19:32;7.82;;;2.03;;
82242;SDS011;71844;51.528;4.442;2024-02-04T08:21:59;6.05;;;1.90;;
82242;SDS011;71844;51.528;4.442;2024-02-04T08:24:27;6.32;;;2.10;;
82242;SDS011;71844;51.528;4.442;2024-02-04T08:26:56;6.50;;;1.85;;
82242;SDS011;71844;51.528;4.442;2024-02-04T08:29:22;5.45;;;1.63;;
82242;SDS011;71844;51.528;4.442;2024-02-04T08:31:49;6.88;;;1.83;;
82242;SDS011;71844;51.528;4.442;2024-02-04T08:34:18;9.57;;;2.08;;
82242;SDS011;71844;51.528;4.442;2024-02-04T08:36:47;3.80;;;1.70;;
82242;SDS011;71844;51.528;4.442;2024-02-04T08:39:14;5.15;;;1.40;;
82242;SDS011;71844;51.528;4.442;2024-02-04T08:41:44;6.50;;;1.65;;
82242;SDS011;71844;51.528;4.442;2024-02-04T08:44:11;7.63;;;2.10;;
82242;SDS011;71844;51.528;4.442;2024-02-04T08:46:51;7.72;;;2.65;;
82242;SDS011;71844;51.528;4.442;2024-02-04T08:49:18;8.13;;;2.63;;
82242;SDS011;71844;51.528;4.442;2024-02-04T08:51:45;5.88;;;2.75;;
82242;SDS011;71844;51.528;4.442;2024-02-04T08:54:15;8.48;;;3.38;;
82242;SDS011;71844;51.528;4.442;2024-02-04T08:56:43;8.73;;;4.22;;
82242;SDS011;71844;51.528;4.442;2024-02-04T08:59:10;8.30;;;4.18;;
82242;SDS011;71844;51.528;4.442;2024-02-04T09:01:44;10.32;;;5.22;;
82242;SDS011;71844;51.528;4.442;2024-02-04T09:04:11;9.30;;;5.32;;
82242;SDS011;71844;51.528;4.442;2024-02-04T09:06:38;9.98;;;4.68;;
82242;SDS011;71844;51.528;4.442;2024-02-04T09:09:06;8.55;;;4.90;;
82242;SDS011;71844;51.528;4.442;2024-02-04T09:11:37;9.55;;;4.82;;
82242;SDS011;71844;51.528;4.442;2024-02-04T09:14:07;10.25;;;5.15;;
82242;SDS011;71844;51.528;4.442;2024-02-04T09:16:37;8.88;;;4.85;;
82242;SDS011;71844;51.528;4.442;2024-02-04T09:19:04;7.90;;;3.78;;
82242;SDS011;71844;51.528;4.442;2024-02-04T09:21:31;10.55;;;4.57;;
82242;SDS011;71844;51.528;4.442;2024-02-04T09:23:58;7.45;;;3.33;;
82242;SDS011;71844;51.528;4.442;2024-02-04T09:26:25;9.18;;;4.00;;
82242;SDS011;71844;51.528;4.442;2024-02-04T09:28:52;6.25;;;2.92;;
82242;SDS011;71844;51.528;4.442;2024-02-04T09:31:21;8.75;;;3.65;;
82242;SDS011;71844;51.528;4.442;2024-02-04T09:33:51;7.13;;;3.47;;
82242;SDS011;71844;51.528;4.442;2024-02-04T09:36:18;9.27;;;3.60;;
82242;SDS011;71844;51.528;4.442;2024-02-04T09:38:45;8.75;;;3.53;;
82242;SDS011;71844;51.528;4.442;2024-02-04T09:41:12;7.82;;;3.47;;
82242;SDS011;71844;51.528;4.442;2024-02-04T09:43:39;8.85;;;3.72;;
82242;SDS011;71844;51.528;4.442;2024-02-04T09:46:07;10.48;;;4.60;;
82242;SDS011;71844;51.528;4.442;2024-02-04T09:48:37;15.98;;;4.72;;
82242;SDS011;71844;51.528;4.442;2024-02-04T09:51:06;7.47;;;4.13;;
82242;SDS011;71844;51.528;4.442;2024-02-04T09:53:34;10.05;;;4.45;;
82242;SDS011;71844;51.528;4.442;2024-02-04T09:56:05;7.28;;;4.68;;
82242;SDS011;71844;51.528;4.442;2024-02-04T09:58:33;9.80;;;4.50;;
82242;SDS011;71844;51.528;4.442;2024-02-04T10:01:01;7.97;;;4.82;;
82242;SDS011;71844;51.528;4.442;2024-02-04T10:03:30;11.00;;;4.78;;
82242;SDS011;71844;51.528;4.442;2024-02-04T10:05:58;10.95;;;4.35;;
82242;SDS011;71844;51.528;4.442;2024-02-04T10:08:25;8.18;;;4.55;;
82242;SDS011;71844;51.528;4.442;2024-02-04T10:10:52;9.48;;;4.32;;
82242;SDS011;71844;51.528;4.442;2024-02-04T10:13:21;13.57;;;5.30;;
82242;SDS011;71844;51.528;4.442;2024-02-04T10:15:51;8.57;;;4.22;;
82242;SDS011;71844;51.528;4.442;2024-02-04T10:18:18;8.85;;;4.22;;
82242;SDS011;71844;51.528;4.442;2024-02-04T10:20:46;6.68;;;3.65;;
82242;SDS011;71844;51.528;4.442;2024-02-04T10:23:13;6.75;;;3.30;;
82242;SDS011;71844;51.528;4.442;2024-02-04T10:25:41;8.07;;;3.72;;
82242;SDS011;71844;51.528;4.442;2024-02-04T10:28:08;11.68;;;3.72;;
82242;SDS011;71844;51.528;4.442;2024-02-04T10:30:37;7.57;;;3.47;;
82242;SDS011;71844;51.528;4.442;2024-02-04T10:33:05;6.70;;;3.20;;
82242;SDS011;71844;51.528;4.442;2024-02-04T10:35:32;8.40;;;3.50;;
82242;SDS011;71844;51.528;4.442;2024-02-04T10:37:59;10.40;;;3.47;;
82242;SDS011;71844;51.528;4.442;2024-02-04T10:40:26;8.48;;;3.03;;
82242;SDS011;71844;51.528;4.442;2024-02-04T10:42:54;9.23;;;3.05;;
82242;SDS011;71844;51.528;4.442;2024-02-04T10:45:26;8.00;;;2.78;;
82242;SDS011;71844;51.528;4.442;2024-02-04T10:47:59;8.15;;;2.92;;
82242;SDS011;71844;51.528;4.442;2024-02-04T10:50:28;8.55;;;3.03;;
82242;SDS011;71844;51.528;4.442;2024-02-04T10:53:02;5.68;;;2.38;;
82242;SDS011;71844;51.528;4.442;2024-02-04T10:55:33;8.80;;;2.70;;
82242;SDS011;71844;51.528;4.442;2024-02-04T10:58:07;5.95;;;2.83;;
82242;SDS011;71844;51.528;4.442;2024-02-04T11:00:34;8.15;;;2.65;;
82242;SDS011;71844;51.528;4.442;2024-02-04T11:03:02;4.07;;;2.13;;
82242;SDS011;71844;51.528;4.442;2024-02-04T11:05:30;7.70;;;2.38;;
82242;SDS011;71844;51.528;4.442;2024-02-04T11:07:58;4.15;;;1.80;;
82242;SDS011;71844;51.528;4.442;2024-02-04T11:10:26;7.40;;;1.63;;
82242;SDS011;71844;51.528;4.442;2024-02-04T11:12:55;5.82;;;1.98;;
82242;SDS011;71844;51.528;4.442;2024-02-04T11:15:26;5.28;;;1.50;;
82242;SDS011;71844;51.528;4.442;2024-02-04T11:24:08;4.10;;;1.35;;
82242;SDS011;71844;51.528;4.442;2024-02-04T11:26:43;3.60;;;1.15;;
82242;SDS011;71844;51.528;4.442;2024-02-04T11:29:10;5.00;;;1.13;;
82242;SDS011;71844;51.528;4.442;2024-02-04T11:31:38;4.22;;;1.00;;
82242;SDS011;71844;51.528;4.442;2024-02-04T11:34:06;2.75;;;1.08;;
82242;SDS011;71844;51.528;4.442;2024-02-04T11:36:40;4.07;;;1.02;;
82242;SDS011;71844;51.528;4.442;2024-02-04T11:39:13;5.30;;;1.13;;
82242;SDS011;71844;51.528;4.442;2024-02-04T11:41:47;4.97;;;1.05;;
82242;SDS011;71844;51.528;4.442;2024-02-04T11:44:21;4.85;;;0.98;;
82242;SDS011;71844;51.528;4.442;2024-02-04T11:46:54;2.88;;;0.90;;
82242;SDS011;71844;51.528;4.442;2024-02-04T11:49:24;5.35;;;0.73;;
82242;SDS011;71844;51.528;4.442;2024-02-04T11:51:52;2.88;;;0.90;;
82242;SDS011;71844;51.528;4.442;2024-02-04T11:54:20;4.72;;;0.73;;
82242;SDS011;71844;51.528;4.442;2024-02-04T11:56:48;9.52;;;1.23;;
82242;SDS011;71844;51.528;4.442;2024-02-04T11:59:20;4.03;;;1.20;;
82242;SDS011;71844;51.528;4.442;2024-02-04T12:01:57;3.92;;;1.13;;
82242;SDS011;71844;51.528;4.442;2024-02-04T12:04:32;3.63;;;1.33;;
82242;SDS011;71844;51.528;4.442;2024-02-04T12:07:00;4.43;;;0.88;;
82242;SDS011;71844;51.528;4.442;2024-02-04T12:09:28;4.88;;;0.82;;
82242;SDS011;71844;51.528;4.442;2024-02-04T12:11:58;2.80;;;0.85;;
82242;SDS011;71844;51.528;4.442;2024-02-04T12:14:28;4.38;;;0.50;;
82242;SDS011;71844;51.528;4.442;2024-02-04T12:16:56;3.30;;;0.73;;
82242;SDS011;71844;51.528;4.442;2024-02-04T12:19:24;3.85;;;0.75;;
82242;SDS011;71844;51.528;4.442;2024-02-04T12:21:51;3.65;;;0.70;;
82242;SDS011;71844;51.528;4.442;2024-02-04T12:24:19;4.25;;;0.70;;
82242;SDS011;71844;51.528;4.442;2024-02-04T12:26:46;4.85;;;0.95;;
82242;SDS011;71844;51.528;4.442;2024-02-04T12:29:14;5.38;;;0.70;;
82242;SDS011;71844;51.528;4.442;2024-02-04T12:31:41;2.25;;;0.50;;
82242;SDS011;71844;51.528;4.442;2024-02-04T12:34:08;3.72;;;0.82;;
82242;SDS011;71844;51.528;4.442;2024-02-04T12:36:35;2.78;;;0.63;;
82242;SDS011;71844;51.528;4.442;2024-02-04T12:39:02;3.25;;;0.57;;
82242;SDS011;71844;51.528;4.442;2024-02-04T12:41:29;1.95;;;0.57;;
82242;SDS011;71844;51.528;4.442;2024-02-04T12:43:57;6.55;;;1.25;;
82242;SDS011;71844;51.528;4.442;2024-02-04T12:46:26;2.72;;;0.70;;
82242;SDS011;71844;51.528;4.442;2024-02-04T12:48:54;3.17;;;0.55;;
82242;SDS011;71844;51.528;4.442;2024-02-04T12:51:29;2.95;;;0.43;;
82242;SDS011;71844;51.528;4.442;2024-02-04T12:54:06;1.67;;;0.40;;
82242;SDS011;71844;51.528;4.442;2024-02-04T12:56:52;2.08;;;0.60;;
82242;SDS011;71844;51.528;4.442;2024-02-04T12:59:30;1.13;;;0.40;;
82242;SDS011;71844;51.528;4.442;2024-02-04T13:01:58;1.73;;;0.40;;
82242;SDS011;71844;51.528;4.442;2024-02-04T13:04:39;2.17;;;0.38;;
82242;SDS011;71844;51.528;4.442;2024-02-04T13:07:14;3.10;;;0.63;;
82242;SDS011;71844;51.528;4.442;2024-02-04T13:09:43;3.42;;;0.68;;
82242;SDS011;71844;51.528;4.442;2024-02-04T13:12:14;2.22;;;0.38;;
82242;SDS011;71844;51.528;4.442;2024-02-04T13:14:43;3.22;;;0.70;;
82242;SDS011;71844;51.528;4.442;2024-02-04T13:17:11;4.13;;;0.50;;
82242;SDS011;71844;51.528;4.442;2024-02-04T13:19:38;2.47;;;0.57;;
82242;SDS011;71844;51.528;4.442;2024-02-04T13:22:06;2.53;;;1.63;;
82242;SDS011;71844;51.528;4.442;2024-02-04T13:24:35;3.65;;;1.02;;
82242;SDS011;71844;51.528;4.442;2024-02-04T13:27:03;6.22;;;0.73;;
82242;SDS011;71844;51.528;4.442;2024-02-04T13:29:31;5.38;;;0.80;;
82242;SDS011;71844;51.528;4.442;2024-02-04T13:31:58;2.17;;;0.85;;
82242;SDS011;71844;51.528;4.442;2024-02-04T13:34:25;3.88;;;0.80;;
82242;SDS011;71844;51.528;4.442;2024-02-04T13:36:59;6.80;;;0.70;;
82242;SDS011;71844;51.528;4.442;2024-02-04T13:39:26;4.60;;;0.63;;
82242;SDS011;71844;51.528;4.442;2024-02-04T13:41:54;2.90;;;0.55;;
82242;SDS011;71844;51.528;4.442;2024-02-04T13:44:48;1.23;;;0.50;;
82242;SDS011;71844;51.528;4.442;2024-02-04T13:47:15;3.95;;;0.70;;
82242;SDS011;71844;51.528;4.442;2024-02-04T13:49:43;6.07;;;1.27;;
82242;SDS011;71844;51.528;4.442;2024-02-04T13:52:10;4.85;;;1.00;;
82242;SDS011;71844;51.528;4.442;2024-02-04T13:54:37;4.07;;;1.08;;
82242;SDS011;71844;51.528;4.442;2024-02-04T13:57:03;4.53;;;1.08;;
82242;SDS011;71844;51.528;4.442;2024-02-04T13:59:31;6.88;;;1.63;;
82242;SDS011;71844;51.528;4.442;2024-02-04T14:01:58;3.42;;;1.20;;
82242;SDS011;71844;51.528;4.442;2024-02-04T14:04:27;4.55;;;1.00;;
82242;SDS011;71844;51.528;4.442;2024-02-04T14:06:56;7.30;;;1.45;;
82242;SDS011;71844;51.528;4.442;2024-02-04T14:09:23;3.55;;;0.93;;
82242;SDS011;71844;51.528;4.442;2024-02-04T14:11:51;5.68;;;1.45;;
82242;SDS011;71844;51.528;4.442;2024-02-04T14:14:18;3.78;;;1.38;;
82242;SDS011;71844;51.528;4.442;2024-02-04T14:16:45;7.40;;;1.67;;
82242;SDS011;71844;51.528;4.442;2024-02-04T14:19:13;6.97;;;1.85;;
82242;SDS011;71844;51.528;4.442;2024-02-04T14:21:40;6.00;;;1.83;;
82242;SDS011;71844;51.528;4.442;2024-02-04T14:24:08;5.88;;;1.95;;
82242;SDS011;71844;51.528;4.442;2024-02-04T14:26:35;6.35;;;1.73;;
82242;SDS011;71844;51.528;4.442;2024-02-04T14:29:02;7.20;;;2.03;;
82242;SDS011;71844;51.528;4.442;2024-02-04T14:31:29;8.05;;;1.95;;
82242;SDS011;71844;51.528;4.442;2024-02-04T14:33:56;7.82;;;2.42;;
82242;SDS011;71844;51.528;4.442;2024-02-04T14:36:22;6.43;;;2.45;;
82242;SDS011;71844;51.528;4.442;2024-02-04T14:38:50;9.75;;;2.33;;
82242;SDS011;71844;51.528;4.442;2024-02-04T14:41:17;8.13;;;2.10;;
82242;SDS011;71844;51.528;4.442;2024-02-04T14:43:44;6.75;;;2.53;;
82242;SDS011;71844;51.528;4.442;2024-02-04T14:46:11;7.50;;;1.98;;
82242;SDS011;71844;51.528;4.442;2024-02-04T14:48:41;7.47;;;2.22;;
82242;SDS011;71844;51.528;4.442;2024-02-04T14:51:09;10.15;;;2.40;;
82242;SDS011;71844;51.528;4.442;2024-02-04T14:53:36;6.07;;;1.65;;
82242;SDS011;71844;51.528;4.442;2024-02-04T14:56:03;7.97;;;2.30;;
82242;SDS011;71844;51.528;4.442;2024-02-04T14:58:30;5.00;;;1.73;;
82242;SDS011;71844;51.528;4.442;2024-02-04T15:00:57;12.85;;;2.10;;
82242;SDS011;71844;51.528;4.442;2024-02-04T15:03:24;10.20;;;2.22;;
82242;SDS011;71844;51.528;4.442;2024-02-04T15:05:51;8.88;;;2.13;;
82242;SDS011;71844;51.528;4.442;2024-02-04T15:08:19;7.93;;;2.15;;
82242;SDS011;71844;51.528;4.442;2024-02-04T15:10:46;7.35;;;2.25;;
82242;SDS011;71844;51.528;4.442;2024-02-04T15:13:13;14.45;;;1.92;;
82242;SDS011;71844;51.528;4.442;2024-02-04T15:15:40;6.53;;;2.20;;
82242;SDS011;71844;51.528;4.442;2024-02-04T15:18:07;7.10;;;2.10;;
82242;SDS011;71844;51.528;4.442;2024-02-04T15:20:35;9.27;;;2.03;;
82242;SDS011;71844;51.528;4.442;2024-02-04T15:23:03;6.00;;;1.65;;
82242;SDS011;71844;51.528;4.442;2024-02-04T15:25:30;6.55;;;2.20;;
82242;SDS011;71844;51.528;4.442;2024-02-04T15:27:58;8.95;;;2.20;;